Time;durP1;ratioP1;P1;durP2;ratioP2;P2;SDS_P1;SDS_P2;PMS_P1;PMS_P2;Temp;Humidity;BMP_temperature;BMP_pressure;BME280_temperature;BME280_humidity;BME280_pressure;Samples;Min_cycle;Max_cycle;Signal;HPM_P1;HPM_P2
2024/04/03 00:01:09;;;;;;;7.55;4.38;;;;;;;;;;6173114;23;20020;-63
2024/04/03 00:03:37;;;;;;;11.20;4.47;;;;;;;;;;6172441;23;20915;-63
2024/04/03 00:06:12;;;;;;;7.53;4.47;;;;;;;;;;6173738;23;20028;-64
2024/04/03 00:08:38;;;;;;;;;;;;;;;;;;6172042;23;20036;-62
2024/04/03 00:11:04;;;;;;;6.22;3.97;;;;;;;;;;6174093;23;19926;-53
2024/04/03 00:13:36;;;;;;;8.07;4.13;;;;;;;;;;6174593;23;20052;-49
2024/04/03 00:16:03;;;;;;;6.25;4.13;;;;;;;;;;6172476;23;20045;-50
2024/04/03 00:18:29;;;;;;;8.68;4.90;;;;;;;;;;6172987;23;20025;-48
2024/04/03 00:21:05;;;;;;;7.97;4.50;;;;;;;;;;6173167;23;20065;-61
2024/04/03 00:23:38;;;;;;;9.90;4.72;;;;;;;;;;6175839;23;20039;-57
2024/04/03 00:26:18;;;;;;;7.68;3.95;;;;;;;;;;6178021;23;20028;-58
2024/04/03 00:28:45;;;;;;;6.75;4.00;;;;;;;;;;6179226;23;20075;-56
2024/04/03 00:31:24;;;;;;;7.45;4.20;;;;;;;;;;6177871;23;20024;-57
2024/04/03 00:33:51;;;;;;;6.68;4.20;;;;;;;;;;6178940;23;20038;-58
2024/04/03 00:36:23;;;;;;;6.85;4.07;;;;;;;;;;6154400;23;20028;-57
2024/04/03 00:38:50;;;;;;;7.40;4.22;;;;;;;;;;6179435;23;20024;-59
2024/04/03 00:41:16;;;;;;;9.57;4.40;;;;;;;;;;6177831;23;20025;-59
2024/04/03 00:43:49;;;;;;;6.75;4.43;;;;;;;;;;6178906;23;20025;-59
2024/04/03 00:46:16;;;;;;;5.77;4.10;;;;;;;;;;6153326;23;20028;-59
2024/04/03 00:48:49;;;;;;;8.05;4.10;;;;;;;;;;6178607;23;20516;-58
2024/04/03 00:51:16;;;;;;;5.95;4.32;;;;;;;;;;6178377;23;20354;-59
2024/04/03 00:53:42;;;;;;;6.78;3.15;;;;;;;;;;6178442;23;20324;-47
2024/04/03 00:56:16;;;;;;;6.97;4.13;;;;;;;;;;6178657;23;20791;-52
2024/04/03 00:58:42;;;;;;;6.32;4.55;;;;;;;;;;6178135;23;20376;-47
2024/04/03 01:01:08;;;;;;;7.13;4.60;;;;;;;;;;6174581;23;20024;-47
2024/04/03 01:03:42;;;;;;;7.00;4.53;;;;;;;;;;6176562;23;20032;-48
2024/04/03 01:06:09;;;;;;;8.35;4.80;;;;;;;;;;6177245;23;20021;-49
2024/04/03 01:08:35;;;;;;;6.63;3.83;;;;;;;;;;6179579;23;20056;-63
2024/04/03 01:11:08;;;;;;;5.63;3.92;;;;;;;;;;6177093;23;20025;-63
2024/04/03 01:13:34;;;;;;;8.68;4.10;;;;;;;;;;6179810;23;20032;-64
2024/04/03 01:16:03;;;;;;;7.57;4.60;;;;;;;;;;6175933;23;20032;-64
2024/04/03 01:18:36;;;;;;;7.00;3.90;;;;;;;;;;6178917;23;20028;-58
2024/04/03 01:21:03;;;;;;;5.43;4.07;;;;;;;;;;6176634;23;20020;-59
2024/04/03 01:23:29;;;;;;;7.15;4.82;;;;;;;;;;6176510;23;20017;-59
2024/04/03 01:26:09;;;;;;;5.88;3.90;;;;;;;;;;6172542;23;20035;-59
2024/04/03 01:28:35;;;;;;;7.75;3.95;;;;;;;;;;6174562;23;20025;-59
2024/04/03 01:31:01;;;;;;;5.88;3.67;;;;;;;;;;6173011;23;20021;-59
2024/04/03 01:33:41;;;;;;;8.82;4.65;;;;;;;;;;6172445;23;20017;-60
2024/04/03 01:36:07;;;;;;;7.90;4.18;;;;;;;;;;6172953;23;20659;-47
2024/04/03 01:38:41;;;;;;;6.53;3.72;;;;;;;;;;6175219;23;20017;-50
2024/04/03 01:41:07;;;;;;;6.00;4.00;;;;;;;;;;6172317;23;20036;-47
2024/04/03 01:43:33;;;;;;;6.65;3.92;;;;;;;;;;6173339;23;20025;-46
2024/04/03 01:46:06;;;;;;;7.45;4.22;;;;;;;;;;6173330;23;20025;-58
2024/04/03 01:48:32;;;;;;;7.93;3.88;;;;;;;;;;6172380;23;20025;-62
2024/04/03 01:51:08;;;;;;;13.80;4.72;;;;;;;;;;6172811;23;20071;-60
2024/04/03 01:53:34;;;;;;;5.03;3.72;;;;;;;;;;6173478;23;20029;-59
2024/04/03 01:56:00;;;;;;;5.22;3.72;;;;;;;;;;6174668;23;20594;-60
2024/04/03 01:58:32;;;;;;;8.50;3.72;;;;;;;;;;6170425;23;20025;-59
2024/04/03 02:00:59;;;;;;;7.50;4.13;;;;;;;;;;6172587;23;20029;-60
2024/04/03 02:03:32;;;;;;;7.22;4.45;;;;;;;;;;6170300;23;20111;-59
2024/04/03 02:05:58;;;;;;;5.85;3.95;;;;;;;;;;6173245;23;20055;-56
2024/04/03 02:08:24;;;;;;;8.35;4.28;;;;;;;;;;6171503;23;20331;-54
2024/04/03 02:10:57;;;;;;;6.97;3.78;;;;;;;;;;6173287;23;20028;-57
2024/04/03 02:13:23;;;;;;;8.05;4.28;;;;;;;;;;6147716;23;20021;-57
2024/04/03 02:15:52;;;;;;;7.32;4.57;;;;;;;;;;6171075;23;20027;-64
2024/04/03 02:18:26;;;;;;;6.72;4.28;;;;;;;;;;6173395;23;20083;-60
2024/04/03 02:20:52;;;;;;;8.35;4.30;;;;;;;;;;6170170;23;20024;-59
2024/04/03 02:23:18;;;;;;;5.65;3.65;;;;;;;;;;6168519;23;20033;-59
2024/04/03 02:25:57;;;;;;;6.10;4.10;;;;;;;;;;6170035;23;20032;-59
2024/04/03 02:28:24;;;;;;;8.27;4.25;;;;;;;;;;6170914;23;20032;-60
2024/04/03 02:31:00;;;;;;;7.22;4.03;;;;;;;;;;6173348;23;20477;-62
2024/04/03 02:33:33;;;;;;;6.95;4.32;;;;;;;;;;6173219;23;20024;-59
2024/04/03 02:36:10;;;;;;;5.07;3.70;;;;;;;;;;6174136;23;20021;-58
2024/04/03 02:38:36;;;;;;;6.07;4.05;;;;;;;;;;6173664;23;20028;-62
2024/04/03 02:41:03;;;;;;;8.40;4.18;;;;;;;;;;6172599;23;20035;-61
2024/04/03 02:43:36;;;;;;;5.93;4.00;;;;;;;;;;6174059;23;20025;-51
2024/04/03 02:46:02;;;;;;;7.22;4.10;;;;;;;;;;6174229;23;20416;-64
2024/04/03 02:48:28;;;;;;;7.80;4.57;;;;;;;;;;6173851;23;20044;-64
2024/04/03 02:51:03;;;;;;;10.30;4.18;;;;;;;;;;6174808;23;20183;-64
2024/04/03 02:53:29;;;;;;;6.00;3.83;;;;;;;;;;6173765;23;20455;-64
2024/04/03 02:56:06;;;;;;;4.65;2.90;;;;;;;;;;6175133;23;20036;-61
2024/04/03 02:58:39;;;;;;;8.60;3.78;;;;;;;;;;6173238;23;20021;-60
2024/04/03 03:01:07;;;;;;;6.45;4.28;;;;;;;;;;6174445;23;20021;-57
2024/04/03 03:03:33;;;;;;;6.47;4.05;;;;;;;;;;6174205;23;20407;-58
2024/04/03 03:06:06;;;;;;;8.02;4.20;;;;;;;;;;6174412;23;20028;-58
2024/04/03 03:08:33;;;;;;;8.77;4.03;;;;;;;;;;6173688;23;20461;-58
2024/04/03 03:11:00;;;;;;;8.55;4.20;;;;;;;;;;6174136;23;20071;-48
2024/04/03 03:13:33;;;;;;;7.20;3.97;;;;;;;;;;6174395;23;20021;-64
2024/04/03 03:16:00;;;;;;;11.32;4.00;;;;;;;;;;6174232;23;20083;-61
2024/04/03 03:18:33;;;;;;;8.40;3.85;;;;;;;;;;6173875;23;20080;-59
2024/04/03 03:20:59;;;;;;;5.63;3.55;;;;;;;;;;6173393;23;20032;-59
2024/04/03 03:23:26;;;;;;;7.43;3.75;;;;;;;;;;6172921;23;20024;-59
2024/04/03 03:26:05;;;;;;;7.28;4.20;;;;;;;;;;6175161;23;20028;-59
2024/04/03 03:28:38;;;;;;;8.57;3.92;;;;;;;;;;6172018;23;20025;-58
2024/04/03 03:31:11;;;;;;;6.07;3.85;;;;;;;;;;6174753;23;20075;-50
2024/04/03 03:33:44;;;;;;;8.70;4.50;;;;;;;;;;6173459;23;20149;-56
2024/04/03 03:36:18;;;;;;;7.45;3.83;;;;;;;;;;6175150;23;20032;-51
2024/04/03 03:38:44;;;;;;;5.47;2.83;;;;;;;;;;6174351;23;20506;-52
2024/04/03 03:41:10;;;;;;;6.32;3.90;;;;;;;;;;6175253;23;20021;-61
2024/04/03 03:43:42;;;;;;;7.53;4.43;;;;;;;;;;6172484;23;20021;-54
2024/04/03 03:46:09;;;;;;;7.72;4.10;;;;;;;;;;6174625;23;20025;-50
2024/04/03 03:54:12;;;;;;;8.18;3.85;;;;;;;;;;6173347;23;20543;-53
2024/04/03 03:56:45;;;;;;;5.25;3.70;;;;;;;;;;6171850;23;20346;-52
2024/04/03 03:59:11;;;;;;;6.60;3.95;;;;;;;;;;6175168;23;20025;-64
2024/04/03 04:01:37;;;;;;;7.70;4.18;;;;;;;;;;6172868;23;20029;-64
2024/04/03 04:04:10;;;;;;;6.93;4.05;;;;;;;;;;6173950;23;20445;-64
2024/04/03 04:06:36;;;;;;;6.78;4.13;;;;;;;;;;6174836;23;20021;-64
2024/04/03 04:09:09;;;;;;;6.38;3.97;;;;;;;;;;6175876;23;20429;-49
2024/04/03 04:11:36;;;;;;;6.05;3.63;;;;;;;;;;6173696;23;20025;-49
2024/04/03 04:14:02;;;;;;;8.05;4.05;;;;;;;;;;6175483;23;20470;-51
2024/04/03 04:16:35;;;;;;;10.77;4.30;;;;;;;;;;6174414;23;20050;-50
2024/04/03 04:19:02;;;;;;;7.80;4.57;;;;;;;;;;6173673;23;20017;-51
2024/04/03 04:21:34;;;;;;;7.22;4.25;;;;;;;;;;6170752;23;20025;-52
2024/04/03 04:24:07;;;;;;;7.30;4.35;;;;;;;;;;6173056;23;20490;-48
2024/04/03 04:26:40;;;;;;;7.22;3.58;;;;;;;;;;6177177;23;20032;-59
2024/04/03 04:29:13;;;;;;;6.93;3.80;;;;;;;;;;6178444;23;20735;-59
2024/04/03 04:31:39;;;;;;;9.18;4.25;;;;;;;;;;6177035;23;20017;-58
2024/04/03 04:34:18;;;;;;;6.68;3.78;;;;;;;;;;6178309;23;20098;-59
2024/04/03 04:36:45;;;;;;;6.68;3.88;;;;;;;;;;6178373;23;20370;-49
2024/04/03 04:39:11;;;;;;;6.70;4.03;;;;;;;;;;6176899;23;20024;-59
2024/04/03 04:41:44;;;;;;;8.23;4.07;;;;;;;;;;6172919;23;20024;-61
2024/04/03 04:44:11;;;;;;;7.00;4.00;;;;;;;;;;6177123;23;20033;-62
2024/04/03 04:46:38;;;;;;;12.93;4.60;;;;;;;;;;6176013;23;20247;-63
2024/04/03 04:49:12;;;;;;;6.78;3.80;;;;;;;;;;6174514;23;20025;-62
2024/04/03 04:51:38;;;;;;;10.70;4.20;;;;;;;;;;6175637;23;20025;-62
2024/04/03 04:54:04;;;;;;;7.65;4.07;;;;;;;;;;6178779;23;20025;-64
2024/04/03 04:56:37;;;;;;;8.88;4.35;;;;;;;;;;6178218;23;20024;-61
2024/04/03 04:59:03;;;;;;;6.40;3.83;;;;;;;;;;6177028;23;20023;-59
2024/04/03 05:01:38;;;;;;;5.88;3.92;;;;;;;;;;6178266;23;20016;-61
2024/04/03 05:04:04;;;;;;;8.88;4.47;;;;;;;;;;6176686;23;20086;-60
2024/04/03 05:06:31;;;;;;;8.65;4.07;;;;;;;;;;6179375;23;20025;-62
2024/04/03 05:09:05;;;;;;;5.72;4.03;;;;;;;;;;6178300;23;20074;-61
2024/04/03 05:11:31;;;;;;;8.20;4.28;;;;;;;;;;6178402;23;20839;-61
2024/04/03 05:14:05;;;;;;;8.10;3.47;;;;;;;;;;6177066;23;20020;-61
2024/04/03 05:16:31;;;;;;;5.93;3.60;;;;;;;;;;6178408;23;20045;-60
2024/04/03 05:18:59;;;;;;;5.50;3.67;;;;;;;;;;6176716;23;20024;-59
2024/04/03 05:21:33;;;;;;;8.07;3.78;;;;;;;;;;6178193;23;20021;-60
2024/04/03 05:23:59;;;;;;;5.03;3.53;;;;;;;;;;6177107;23;20031;-61
2024/04/03 05:26:39;;;;;;;5.53;3.28;;;;;;;;;;6178520;23;20441;-59
2024/04/03 05:29:06;;;;;;;5.05;3.38;;;;;;;;;;6177427;23;20401;-59
2024/04/03 05:31:39;;;;;;;5.22;3.15;;;;;;;;;;6177465;23;20032;-59
2024/04/03 05:34:11;;;;;;;5.47;3.15;;;;;;;;;;6177626;23;20481;-57
2024/04/03 05:36:38;;;;;;;6.05;3.72;;;;;;;;;;6178782;23;20028;-60
2024/04/03 05:39:11;;;;;;;4.65;2.90;;;;;;;;;;6178504;23;20020;-59
2024/04/03 05:41:37;;;;;;;5.70;3.10;;;;;;;;;;6177476;23;20536;-59
2024/04/03 05:44:03;;;;;;;4.82;2.90;;;;;;;;;;6177971;23;20017;-58
2024/04/03 05:46:36;;;;;;;4.30;3.10;;;;;;;;;;6176288;23;20021;-56
2024/04/03 05:49:02;;;;;;;5.75;3.13;;;;;;;;;;6172542;23;20083;-58
2024/04/03 05:51:35;;;;;;;3.95;2.70;;;;;;;;;;6177688;23;20083;-59
2024/04/03 05:54:01;;;;;;;7.25;2.90;;;;;;;;;;6178140;23;20032;-56
2024/04/03 05:56:27;;;;;;;4.68;3.15;;;;;;;;;;6177258;23;20016;-57
2024/04/03 05:59:00;;;;;;;4.40;2.55;;;;;;;;;;6175993;23;20021;-59
2024/04/03 06:01:26;;;;;;;6.35;2.75;;;;;;;;;;6176535;23;20336;-59
2024/04/03 06:03:59;;;;;;;5.82;2.88;;;;;;;;;;6176975;23;20021;-59
2024/04/03 06:06:25;;;;;;;2.63;1.97;;;;;;;;;;6178061;23;20028;-59
2024/04/03 06:08:51;;;;;;;3.47;2.72;;;;;;;;;;6176627;23;20469;-59
2024/04/03 06:11:23;;;;;;;4.15;2.53;;;;;;;;;;6178108;23;20346;-59
2024/04/03 06:13:50;;;;;;;4.28;2.72;;;;;;;;;;6177637;23;20024;-58
2024/04/03 06:16:16;;;;;;;4.63;2.40;;;;;;;;;;6177362;23;20020;-59
2024/04/03 06:18:49;;;;;;;3.47;2.30;;;;;;;;;;6179791;23;20028;-59
2024/04/03 06:21:15;;;;;;;4.97;2.75;;;;;;;;;;6179855;23;20036;-51
2024/04/03 06:23:42;;;;;;;4.60;2.72;;;;;;;;;;6178193;23;20028;-50
2024/04/03 06:26:21;;;;;;;7.05;2.80;;;;;;;;;;6174450;23;20041;-47
2024/04/03 06:28:48;;;;;;;3.40;2.42;;;;;;;;;;6173231;23;20052;-49
2024/04/03 06:31:21;;;;;;;4.68;2.67;;;;;;;;;;6174357;23;20025;-65
2024/04/03 06:33:56;;;;;;;3.25;2.30;;;;;;;;;;6175669;23;20075;-52
2024/04/03 06:36:37;;;;;;;4.10;2.22;;;;;;;;;;6175673;23;20045;-49
2024/04/03 06:39:04;;;;;;;2.45;2.10;;;;;;;;;;6175068;23;20024;-50
2024/04/03 06:41:37;;;;;;;3.72;2.20;;;;;;;;;;6173505;23;20479;-47
2024/04/03 06:44:03;;;;;;;4.30;2.20;;;;;;;;;;6175623;23;20044;-50
2024/04/03 06:46:30;;;;;;;3.78;2.05;;;;;;;;;;6175380;23;20249;-49
2024/04/03 06:49:03;;;;;;;3.35;2.00;;;;;;;;;;6174834;23;20028;-59
2024/04/03 06:51:29;;;;;;;2.30;1.60;;;;;;;;;;6175053;23;20340;-59
2024/04/03 06:53:56;;;;;;;7.57;2.00;;;;;;;;;;6174427;23;20021;-58
2024/04/03 06:56:30;;;;;;;2.15;1.80;;;;;;;;;;6173913;23;20355;-59
2024/04/03 06:58:57;;;;;;;4.60;1.90;;;;;;;;;;6173803;23;20032;-52
2024/04/03 07:01:23;;;;;;;4.50;2.03;;;;;;;;;;6174107;23;20021;-54
2024/04/03 07:03:56;;;;;;;3.05;1.80;;;;;;;;;;6174663;23;20021;-59
2024/04/03 07:06:22;;;;;;;3.00;1.92;;;;;;;;;;6175244;23;20025;-60
2024/04/03 07:08:49;;;;;;;2.78;1.67;;;;;;;;;;6172712;23;20111;-59
2024/04/03 07:11:22;;;;;;;3.28;1.70;;;;;;;;;;6173618;23;20465;-59
2024/04/03 07:13:49;;;;;;;2.92;1.90;;;;;;;;;;6173958;23;20021;-59
2024/04/03 07:16:15;;;;;;;2.85;1.60;;;;;;;;;;6172619;23;20032;-59
2024/04/03 07:18:48;;;;;;;2.53;1.50;;;;;;;;;;6174971;23;20021;-59
2024/04/03 07:21:14;;;;;;;1.80;1.50;;;;;;;;;;6173844;23;20029;-59
2024/04/03 07:23:40;;;;;;;3.55;1.80;;;;;;;;;;6174842;23;20029;-60
2024/04/03 07:26:23;;;;;;;2.30;1.60;;;;;;;;;;6173728;23;20127;-59
2024/04/03 07:28:49;;;;;;;3.33;2.05;;;;;;;;;;6171845;23;20029;-60
2024/04/03 07:31:23;;;;;;;7.72;2.00;;;;;;;;;;6173141;23;20068;-59
2024/04/03 07:33:50;;;;;;;;;;;;;;;;;;6175431;23;20028;-59
2024/04/03 07:36:23;;;;;;;2.60;1.70;;;;;;;;;;6174214;23;19920;-59
2024/04/03 07:39:03;;;;;;;4.15;1.60;;;;;;;;;;6174650;23;20088;-59
2024/04/03 07:41:30;;;;;;;4.82;1.90;;;;;;;;;;6174352;23;20024;-59
2024/04/03 07:44:03;;;;;;;1.95;1.60;;;;;;;;;;6174702;23;20040;-58
2024/04/03 07:46:30;;;;;;;2.33;1.52;;;;;;;;;;6174404;23;20025;-67
2024/04/03 07:48:56;;;;;;;3.00;1.50;;;;;;;;;;6173932;23;20029;-67
2024/04/03 07:51:29;;;;;;;2.10;1.55;;;;;;;;;;6173877;23;20271;-67
2024/04/03 07:53:55;;;;;;;3.85;1.50;;;;;;;;;;6173320;23;20029;-66
2024/04/03 07:56:22;;;;;;;2.70;1.55;;;;;;;;;;6174712;23;20021;-60
2024/04/03 07:58:55;;;;;;;1.23;1.13;;;;;;;;;;6172427;23;20017;-61
2024/04/03 08:01:21;;;;;;;3.10;1.40;;;;;;;;;;6173498;23;20021;-61
2024/04/03 08:03:47;;;;;;;1.40;1.25;;;;;;;;;;6174256;23;20048;-61
2024/04/03 08:06:21;;;;;;;4.47;1.70;;;;;;;;;;6174525;23;20479;-60
2024/04/03 08:08:48;;;;;;;;;;;;;;;;;;6170899;23;20466;-61
2024/04/03 08:11:21;;;;;;;2.58;1.63;;;;;;;;;;6174237;23;19979;-61
2024/04/03 08:13:48;;;;;;;3.63;1.88;;;;;;;;;;6174127;23;20024;-50
2024/04/03 08:16:14;;;;;;;2.85;1.67;;;;;;;;;;6172756;23;20351;-53
2024/04/03 08:18:49;;;;;;;2.65;1.50;;;;;;;;;;6175022;23;20021;-51
2024/04/03 08:21:15;;;;;;;2.08;1.35;;;;;;;;;;6173342;23;20048;-50
2024/04/03 08:23:48;;;;;;;4.97;1.60;;;;;;;;;;6173428;23;20021;-64
2024/04/03 08:26:20;;;;;;;2.97;2.10;;;;;;;;;;6173424;23;20028;-51
2024/04/03 08:28:54;;;;;;;4.15;1.60;;;;;;;;;;6173364;23;20025;-57
2024/04/03 08:31:20;;;;;;;4.38;1.80;;;;;;;;;;6173023;23;20044;-56
2024/04/03 08:33:47;;;;;;;2.35;1.38;;;;;;;;;;6173954;23;20028;-56
2024/04/03 08:36:20;;;;;;;2.97;1.52;;;;;;;;;;6173325;23;20648;-59
2024/04/03 08:38:53;;;;;;;3.00;1.47;;;;;;;;;;6173189;23;20025;-57
2024/04/03 08:41:27;;;;;;;2.90;1.35;;;;;;;;;;6173697;23;20056;-57
2024/04/03 08:43:54;;;;;;;3.25;1.00;;;;;;;;;;6148941;23;20028;-57
2024/04/03 08:46:21;;;;;;;1.90;1.05;;;;;;;;;;6171654;23;20362;-57
2024/04/03 08:48:54;;;;;;;2.67;1.40;;;;;;;;;;6173840;23;20052;-57
2024/04/03 08:51:21;;;;;;;1.43;1.07;;;;;;;;;;6173573;23;20024;-57
2024/04/03 08:53:47;;;;;;;1.55;1.30;;;;;;;;;;6171652;23;21047;-52
2024/04/03 08:56:20;;;;;;;1.70;1.30;;;;;;;;;;6173764;23;20021;-50
2024/04/03 08:58:46;;;;;;;3.15;1.00;;;;;;;;;;6171608;23;20032;-53
2024/04/03 09:01:39;;;;;;;3.20;1.25;;;;;;;;;;6172064;23;20357;-52
2024/04/03 09:04:25;;;;;;;2.10;1.20;;;;;;;;;;6173474;23;20105;-50
2024/04/03 09:07:19;;;;;;;1.13;0.98;;;;;;;;;;6172948;23;20084;-53
2024/04/03 09:10:05;;;;;;;1.83;1.30;;;;;;;;;;6168901;23;20084;-51
2024/04/03 09:13:04;;;;;;;1.73;1.20;;;;;;;;;;6173064;23;20040;-59
2024/04/03 09:15:57;;;;;;;1.42;1.25;;;;;;;;;;6173970;23;20071;-59
2024/04/03 09:18:43;;;;;;;2.72;1.20;;;;;;;;;;6173021;23;20028;-58
2024/04/03 09:21:36;;;;;;;4.13;1.15;;;;;;;;;;6170367;23;20021;-64
2024/04/03 09:24:22;;;;;;;4.45;1.30;;;;;;;;;;6170890;23;20071;-64
2024/04/03 09:27:22;;;;;;;1.92;1.15;;;;;;;;;;6174105;23;20021;-64
2024/04/03 09:30:14;;;;;;;2.00;1.15;;;;;;;;;;6173531;23;20032;-64
2024/04/03 09:33:07;;;;;;;1.48;1.08;;;;;;;;;;6172777;23;20036;-63
2024/04/03 09:36:05;;;;;;;1.13;1.02;;;;;;;;;;6173685;23;20410;-64
2024/04/03 09:38:52;;;;;;;5.22;1.20;;;;;;;;;;6172210;23;20180;-64
2024/04/03 09:41:52;;;;;;;1.27;1.10;;;;;;;;;;6171435;23;20569;-64
2024/04/03 09:44:38;;;;;;;2.75;1.20;;;;;;;;;;6170891;23;20359;-64
2024/04/03 09:47:33;;;;;;;2.78;1.10;;;;;;;;;;6171947;23;20017;-63
2024/04/03 09:50:18;;;;;;;2.03;1.10;;;;;;;;;;6171903;23;20025;-64
2024/04/03 09:53:21;;;;;;;2.22;1.80;;;;;;;;;;6171275;23;20025;-67
2024/04/03 09:56:08;;;;;;;2.80;1.52;;;;;;;;;;6172011;23;20478;-65
2024/04/03 09:59:02;;;;;;;2.13;1.55;;;;;;;;;;6171348;23;20048;-65
2024/04/03 10:01:48;;;;;;;2.10;1.38;;;;;;;;;;6172632;23;20036;-66
2024/04/03 10:04:42;;;;;;;4.25;1.40;;;;;;;;;;6170926;23;20403;-64
2024/04/03 10:07:35;;;;;;;1.45;1.23;;;;;;;;;;6171334;23;20095;-59
2024/04/03 10:10:28;;;;;;;3.90;1.30;;;;;;;;;;6171620;23;20079;-58
2024/04/03 10:13:24;;;;;;;1.50;1.30;;;;;;;;;;6173320;23;20021;-60
2024/04/03 10:16:17;;;;;;;2.42;1.40;;;;;;;;;;6172858;23;20043;-59
2024/04/03 10:19:27;;;;;;;1.85;1.40;;;;;;;;;;6171747;23;20529;-64
2024/04/03 10:22:31;;;;;;;1.48;1.20;;;;;;;;;;6169595;23;20344;-49
2024/04/03 10:25:24;;;;;;;2.30;1.23;;;;;;;;;;6172704;23;20017;-48
2024/04/03 10:28:23;;;;;;;1.80;1.30;;;;;;;;;;6173053;23;20025;-47
2024/04/03 10:31:10;;;;;;;4.40;1.50;;;;;;;;;;6173290;23;20048;-49
2024/04/03 10:34:03;;;;;;;5.15;1.25;;;;;;;;;;6172572;23;20025;-48
2024/04/03 10:36:49;;;;;;;2.65;1.73;;;;;;;;;;6169508;23;20021;-61
2024/04/03 10:39:42;;;;;;;2.22;1.35;;;;;;;;;;6170579;23;20036;-60
2024/04/03 10:42:34;;;;;;;3.45;1.40;;;;;;;;;;6173780;23;20032;-61
2024/04/03 10:45:27;;;;;;;2.70;1.30;;;;;;;;;;6173932;23;20032;-60
2024/04/03 10:48:13;;;;;;;2.90;1.60;;;;;;;;;;6173366;23;20370;-48
2024/04/03 10:51:06;;;;;;;2.17;1.70;;;;;;;;;;6172496;23;20021;-53
2024/04/03 10:53:59;;;;;;;1.65;1.20;;;;;;;;;;6170662;23;20099;-53
2024/04/03 10:56:45;;;;;;;2.60;1.50;;;;;;;;;;6171662;23;20029;-50
2024/04/03 10:59:38;;;;;;;2.00;1.60;;;;;;;;;;6170439;23;20021;-54
2024/04/03 11:02:31;;;;;;;5.05;1.80;;;;;;;;;;6170844;23;20021;-55
2024/04/03 11:05:17;;;;;;;2.25;1.48;;;;;;;;;;6174059;23;20017;-60
2024/04/03 11:08:11;;;;;;;2.75;1.52;;;;;;;;;;6172819;23;20025;-60
2024/04/03 11:11:09;;;;;;;2.13;1.73;;;;;;;;;;6173342;23;20025;-60
2024/04/03 11:14:02;;;;;;;3.90;1.45;;;;;;;;;;6172594;23;20021;-62
2024/04/03 11:16:48;;;;;;;5.05;1.80;;;;;;;;;;6174129;23;20414;-64
2024/04/03 11:19:42;;;;;;;2.03;1.48;;;;;;;;;;6173454;23;20021;-56
2024/04/03 11:22:28;;;;;;;3.83;1.60;;;;;;;;;;6173272;23;20017;-57
2024/04/03 11:25:26;;;;;;;2.22;1.50;;;;;;;;;;6173815;23;20028;-57
2024/04/03 11:28:19;;;;;;;1.52;1.30;;;;;;;;;;6172999;23;20398;-57
2024/04/03 11:31:12;;;;;;;4.18;1.45;;;;;;;;;;6175384;23;20467;-60
2024/04/03 11:33:58;;;;;;;3.03;1.48;;;;;;;;;;6174077;23;20821;-49
2024/04/03 11:36:51;;;;;;;2.75;1.67;;;;;;;;;;6173132;23;20025;-51
2024/04/03 11:39:37;;;;;;;3.65;1.50;;;;;;;;;;6173526;23;20029;-54
2024/04/03 11:42:36;;;;;;;2.88;1.45;;;;;;;;;;6175075;23;20036;-50
2024/04/03 11:45:22;;;;;;;1.90;1.38;;;;;;;;;;6174417;23;20021;-52
2024/04/03 11:48:16;;;;;;;2.67;1.70;;;;;;;;;;6174401;23;20025;-52
2024/04/03 11:51:02;;;;;;;2.63;1.70;;;;;;;;;;6172943;23;20028;-48
2024/04/03 11:53:55;;;;;;;2.95;1.52;;;;;;;;;;6172394;23;20021;-50
2024/04/03 11:56:41;;;;;;;2.72;1.65;;;;;;;;;;6173596;23;20020;-54
2024/04/03 11:59:40;;;;;;;2.33;1.80;;;;;;;;;;6172942;23;20021;-52
2024/04/03 12:02:27;;;;;;;2.60;1.40;;;;;;;;;;6173492;23;20830;-59
2024/04/03 12:05:19;;;;;;;1.92;1.27;;;;;;;;;;6171242;23;20028;-57
2024/04/03 12:08:12;;;;;;;2.60;1.83;;;;;;;;;;6170460;23;20021;-59
2024/04/03 12:11:06;;;;;;;2.35;1.38;;;;;;;;;;6172500;23;20025;-59
2024/04/03 12:13:51;;;;;;;1.83;1.50;;;;;;;;;;6171720;23;20021;-52
2024/04/03 12:16:45;;;;;;;1.50;1.40;;;;;;;;;;6174472;23;20025;-60
2024/04/03 12:19:44;;;;;;;4.05;1.48;;;;;;;;;;6171984;23;20458;-60
2024/04/03 12:22:26;;;;;;;2.40;1.60;;;;;;;;;;6170996;23;20025;-60
2024/04/03 12:25:14;;;;;;;1.85;1.70;;;;;;;;;;6175869;23;20028;-60
2024/04/03 12:28:12;;;;;;;2.33;1.48;;;;;;;;;;6177708;23;20021;-60
2024/04/03 12:30:58;;;;;;;1.30;1.20;;;;;;;;;;6178365;23;20067;-56
2024/04/03 12:33:52;;;;;;;1.55;1.30;;;;;;;;;;6178221;23;20795;-53
2024/04/03 12:36:38;;;;;;;2.70;1.60;;;;;;;;;;6175477;23;20020;-57
2024/04/03 12:39:41;;;;;;;5.18;1.60;;;;;;;;;;6178070;23;20025;-59
2024/04/03 12:42:34;;;;;;;2.55;1.70;;;;;;;;;;6179476;23;20021;-63
2024/04/03 12:45:34;;;;;;;1.55;1.30;;;;;;;;;;6179606;23;20031;-52
2024/04/03 12:48:20;;;;;;;2.25;1.40;;;;;;;;;;6178875;23;20021;-53
2024/04/03 12:51:13;;;;;;;2.97;1.48;;;;;;;;;;6178153;23;20346;-52
2024/04/03 12:53:59;;;;;;;1.73;1.00;;;;;;;;;;6178421;23;20021;-53
2024/04/03 12:56:52;;;;;;;2.65;1.60;;;;;;;;;;6177759;23;20021;-52
2024/04/03 12:59:39;;;;;;;2.10;1.50;;;;;;;;;;6179152;23;20029;-64
2024/04/03 13:02:31;;;;;;;1.98;1.50;;;;;;;;;;6178245;23;20021;-66
2024/04/03 13:05:18;;;;;;;2.17;1.50;;;;;;;;;;6177780;23;20024;-65
2024/04/03 13:08:11;;;;;;;2.90;1.23;;;;;;;;;;6178599;23;20027;-66
2024/04/03 13:10:57;;;;;;;1.50;1.27;;;;;;;;;;6180022;23;20024;-57
2024/04/03 13:13:50;;;;;;;2.90;1.40;;;;;;;;;;6178472;23;20020;-66
2024/04/03 13:16:38;;;;;;;1.23;1.10;;;;;;;;;;6179522;23;20021;-65
2024/04/03 13:19:31;;;;;;;9.75;1.35;;;;;;;;;;6178810;23;20482;-66
2024/04/03 13:22:19;;;;;;;5.05;1.70;;;;;;;;;;6177755;23;20435;-66
2024/04/03 13:25:16;;;;;;;2.13;1.35;;;;;;;;;;6176913;23;20020;-66
2024/04/03 13:28:10;;;;;;;2.00;1.33;;;;;;;;;;6179433;23;20044;-63
2024/04/03 13:31:02;;;;;;;3.35;1.77;;;;;;;;;;6178891;23;20023;-64
2024/04/03 13:33:48;;;;;;;2.53;1.20;;;;;;;;;;6158166;23;20028;-63
2024/04/03 13:36:41;;;;;;;1.63;1.20;;;;;;;;;;6180027;23;20079;-63
2024/04/03 13:39:27;;;;;;;3.72;1.20;;;;;;;;;;6179064;23;20017;-55
2024/04/03 13:42:20;;;;;;;2.38;1.33;;;;;;;;;;6177677;23;20025;-63
2024/04/03 13:45:12;;;;;;;2.70;1.50;;;;;;;;;;6178111;23;20098;-63
2024/04/03 13:48:05;;;;;;;2.60;1.50;;;;;;;;;;6178762;23;20016;-63
2024/04/03 13:50:51;;;;;;;2.10;1.23;;;;;;;;;;6178162;23;20316;-63
2024/04/03 13:53:44;;;;;;;2.03;1.40;;;;;;;;;;6177937;23;20335;-63
2024/04/03 13:56:30;;;;;;;1.10;0.95;;;;;;;;;;6178750;23;20091;-52
2024/04/03 13:59:23;;;;;;;1.90;1.52;;;;;;;;;;6176916;23;20106;-53
2024/04/03 14:02:16;;;;;;;1.67;1.35;;;;;;;;;;6177867;23;20052;-49
2024/04/03 14:05:02;;;;;;;1.65;1.40;;;;;;;;;;6179084;23;20017;-54
2024/04/03 14:07:55;;;;;;;1.52;1.40;;;;;;;;;;6178282;23;20032;-63
2024/04/03 14:10:41;;;;;;;1.42;1.33;;;;;;;;;;6178726;23;20043;-60
2024/04/03 14:13:35;;;;;;;3.80;1.60;;;;;;;;;;6178210;23;20024;-60
2024/04/03 14:16:20;;;;;;;1.38;1.08;;;;;;;;;;6179030;23;20020;-60
2024/04/03 14:19:13;;;;;;;3.22;1.42;;;;;;;;;;6178344;23;20024;-60
2024/04/03 14:21:59;;;;;;;1.85;1.20;;;;;;;;;;6178249;23;20032;-60
2024/04/03 14:24:53;;;;;;;2.60;1.48;;;;;;;;;;6176786;23;20021;-66
2024/04/03 14:27:51;;;;;;;2.28;1.70;;;;;;;;;;6178653;23;20025;-67
2024/04/03 14:30:45;;;;;;;2.75;1.60;;;;;;;;;;6177662;23;20032;-67
2024/04/03 14:33:31;;;;;;;3.85;1.30;;;;;;;;;;6178008;23;20020;-67
2024/04/03 14:36:24;;;;;;;3.42;1.40;;;;;;;;;;6177515;23;20079;-63
2024/04/03 14:39:10;;;;;;;1.95;1.63;;;;;;;;;;6179195;23;20358;-52
2024/04/03 14:42:04;;;;;;;2.33;1.52;;;;;;;;;;6180374;23;20020;-52
2024/04/03 14:44:56;;;;;;;1.38;1.27;;;;;;;;;;6178710;23;20358;-54
2024/04/03 14:47:52;;;;;;;3.75;1.60;;;;;;;;;;6178164;23;20496;-49
2024/04/03 14:50:45;;;;;;;3.20;1.50;;;;;;;;;;6178594;23;20047;-53
2024/04/03 14:53:31;;;;;;;3.65;1.50;;;;;;;;;;6181078;23;20020;-58
2024/04/03 14:56:24;;;;;;;2.45;1.33;;;;;;;;;;6180657;23;20028;-58
2024/04/03 14:59:10;;;;;;;1.48;1.25;;;;;;;;;;6183231;23;20432;-58
2024/04/03 15:02:03;;;;;;;2.20;1.40;;;;;;;;;;6182721;23;20016;-58
2024/04/03 15:04:49;;;;;;;2.83;1.67;;;;;;;;;;6181153;23;20037;-63
2024/04/03 15:07:42;;;;;;;2.65;1.55;;;;;;;;;;6181102;23;20039;-60
2024/04/03 15:10:28;;;;;;;2.40;1.80;;;;;;;;;;6179845;23;20172;-61
2024/04/03 15:13:21;;;;;;;3.15;1.70;;;;;;;;;;6181883;23;20016;-60
2024/04/03 15:16:07;;;;;;;2.83;1.35;;;;;;;;;;6181007;23;20501;-61
2024/04/03 15:19:00;;;;;;;4.13;1.80;;;;;;;;;;6181245;23;20024;-60
2024/04/03 15:21:46;;;;;;;4.07;1.50;;;;;;;;;;6177727;23;20024;-51
2024/04/03 15:24:39;;;;;;;2.00;1.70;;;;;;;;;;6179320;23;20028;-52
2024/04/03 15:27:32;;;;;;;2.00;1.60;;;;;;;;;;6174438;23;20017;-52
2024/04/03 15:30:25;;;;;;;;;;;;;;;;;;6174281;23;20032;-53
2024/04/03 15:33:18;;;;;;;2.90;1.73;;;;;;;;;;6171364;23;19919;-60
2024/04/03 15:36:12;;;;;;;3.67;1.90;;;;;;;;;;6171518;23;20021;-52
2024/04/03 15:38:57;;;;;;;4.32;1.73;;;;;;;;;;6171579;23;20044;-53
2024/04/03 15:41:50;;;;;;;4.78;1.55;;;;;;;;;;6172881;23;20021;-49
2024/04/03 15:44:36;;;;;;;1.92;1.52;;;;;;;;;;6170670;23;20025;-51
2024/04/03 15:47:35;;;;;;;2.88;1.52;;;;;;;;;;6170599;23;20489;-56
2024/04/03 15:50:22;;;;;;;2.50;1.27;;;;;;;;;;6172776;23;20025;-67
2024/04/03 15:53:15;;;;;;;2.92;1.50;;;;;;;;;;6173260;23;20297;-67
2024/04/03 15:56:01;;;;;;;2.35;1.63;;;;;;;;;;6171930;23;20025;-66